Time;durP1;ratioP1;P1;durP2;ratioP2;P2;SDS_P1;SDS_P2;PMS_P1;PMS_P2;Temp;Humidity;BMP_temperature;BMP_pressure;BME280_temperature;BME280_humidity;BME280_pressure;Samples;Min_cycle;Max_cycle;Signal;HPM_P1;HPM_P2
2022/06/01 00:01:09;;;;;;;4.75;3.47;;;7.10;99.90;;;;;;5014045;28;20115;-69
2022/06/01 00:03:37;;;;;;;5.10;4.28;;;7.10;99.90;;;;;;5014164;28;20105;-69
2022/06/01 00:06:03;;;;;;;4.90;3.58;;;7.00;99.90;;;;;;5014081;28;20442;-69
2022/06/01 00:08:29;;;;;;;5.35;3.53;;;7.00;99.90;;;;;;5013864;28;20022;-69
2022/06/01 00:10:57;;;;;;;5.95;3.50;;;7.00;99.90;;;;;;5014523;28;20022;-69
2022/06/01 00:13:23;;;;;;;4.25;3.80;;;6.90;99.90;;;;;;5013997;28;20030;-69
2022/06/01 00:15:49;;;;;;;9.73;5.70;;;6.90;99.90;;;;;;5014107;28;20029;-69
2022/06/01 00:18:14;;;;;;;17.70;9.02;;;6.80;99.90;;;;;;5014350;28;20034;-69
2022/06/01 00:20:40;;;;;;;37.88;14.45;;;6.80;99.90;;;;;;5013820;28;20147;-69
2022/06/01 00:23:06;;;;;;;34.05;15.35;;;6.80;99.90;;;;;;5013859;28;20093;-69
2022/06/01 00:25:32;;;;;;;38.55;14.85;;;6.70;99.90;;;;;;5013905;28;20022;-69
2022/06/01 00:27:58;;;;;;;23.30;9.75;;;6.70;99.90;;;;;;5013874;28;20034;-69
2022/06/01 00:30:24;;;;;;;7.60;5.18;;;6.70;99.90;;;;;;5013848;28;20076;-69
2022/06/01 00:32:50;;;;;;;7.93;5.03;;;6.80;99.90;;;;;;5014800;28;20125;-69
2022/06/01 00:35:20;;;;;;;5.15;4.38;;;6.80;99.90;;;;;;5018016;28;20098;-69
2022/06/01 00:37:46;;;;;;;7.72;4.07;;;6.80;99.90;;;;;;5018167;28;20022;-69
2022/06/01 00:40:13;;;;;;;6.43;4.88;;;6.90;99.90;;;;;;5017626;28;20025;-69
2022/06/01 00:42:41;;;;;;;7.85;4.45;;;7.00;99.90;;;;;;5017915;28;20037;-69
2022/06/01 00:45:08;;;;;;;6.60;5.13;;;7.00;99.90;;;;;;5017796;28;20022;-69
2022/06/01 00:47:34;;;;;;;5.72;4.43;;;7.10;99.90;;;;;;5017563;28;20075;-69
2022/06/01 00:50:03;;;;;;;6.50;4.80;;;7.10;99.90;;;;;;5017672;28;20029;-69
2022/06/01 00:52:37;;;;;;;5.28;4.40;;;7.20;99.90;;;;;;5018216;28;20054;-69
2022/06/01 00:55:04;;;;;;;8.00;4.47;;;7.30;99.90;;;;;;5019213;28;20029;-69
2022/06/01 00:57:30;;;;;;;9.68;4.75;;;7.30;99.90;;;;;;5000318;28;20109;-69
2022/06/01 00:59:57;;;;;;;4.97;4.40;;;7.40;99.90;;;;;;5017361;28;20049;-69
2022/06/01 01:02:23;;;;;;;7.38;4.72;;;7.40;99.90;;;;;;5017214;28;20479;-70
2022/06/01 01:04:48;;;;;;;5.68;4.43;;;7.40;99.90;;;;;;4999938;28;20033;-69
2022/06/01 01:07:15;;;;;;;6.30;5.03;;;7.50;99.90;;;;;;5017310;28;20488;-69
2022/06/01 01:09:41;;;;;;;5.18;4.50;;;7.50;99.90;;;;;;5017192;28;20405;-69
2022/06/01 01:12:10;;;;;;;6.13;4.88;;;7.50;99.90;;;;;;5017566;28;20026;-69
2022/06/01 01:14:40;;;;;;;6.20;5.05;;;7.60;99.90;;;;;;5017347;28;20026;-69
2022/06/01 01:17:07;;;;;;;5.18;4.22;;;7.60;99.90;;;;;;4999346;28;20480;-69
2022/06/01 01:19:37;;;;;;;8.20;4.63;;;7.60;99.90;;;;;;5016996;28;20014;-69
2022/06/01 01:22:21;;;;;;;7.15;4.72;;;7.60;99.90;;;;;;5017270;28;20117;-69
2022/06/01 01:25:05;;;;;;;4.93;4.40;;;7.70;99.90;;;;;;5017141;28;20072;-69
2022/06/01 01:27:31;;;;;;;5.72;4.90;;;7.70;99.90;;;;;;5016861;28;20057;-69
2022/06/01 01:29:57;;;;;;;6.28;5.00;;;7.70;99.90;;;;;;5017275;28;20061;-69
2022/06/01 01:32:22;;;;;;;5.82;4.63;;;7.80;99.90;;;;;;5017426;28;20029;-69
2022/06/01 01:34:48;;;;;;;6.22;4.45;;;7.80;99.90;;;;;;5016801;28;20022;-69
2022/06/01 01:37:22;;;;;;;8.35;5.13;;;7.80;99.90;;;;;;5016692;28;20033;-69
2022/06/01 01:39:49;;;;;;;6.65;4.80;;;7.80;99.90;;;;;;5016913;28;20032;-69
2022/06/01 01:42:15;;;;;;;6.15;4.97;;;7.80;99.90;;;;;;5016483;28;20390;-69
2022/06/01 01:44:58;;;;;;;8.85;5.38;;;7.80;99.90;;;;;;5015912;28;20109;-69
2022/06/01 01:47:24;;;;;;;6.75;6.00;;;7.80;99.90;;;;;;5016585;28;20022;-69
2022/06/01 01:49:50;;;;;;;7.78;5.57;;;7.90;99.90;;;;;;5016413;28;20479;-69
2022/06/01 01:52:17;;;;;;;5.75;4.95;;;7.90;99.90;;;;;;5016908;28;20026;-69
2022/06/01 01:55:08;;;;;;;6.82;4.50;;;7.90;99.90;;;;;;5016370;28;20026;-69
2022/06/01 01:57:39;;;;;;;7.72;4.63;;;7.90;99.90;;;;;;5016236;28;20076;-69
2022/06/01 02:00:17;;;;;;;7.70;5.50;;;7.90;99.90;;;;;;5016666;28;20377;-69
2022/06/01 02:03:11;;;;;;;7.97;5.60;;;7.90;99.90;;;;;;5016206;28;20018;-69
2022/06/01 02:06:04;;;;;;;7.50;5.20;;;7.90;99.90;;;;;;5016381;28;20034;-69
2022/06/01 02:08:49;;;;;;;12.82;5.00;;;7.90;99.90;;;;;;5016051;28;20053;-69
2022/06/01 02:14:35;;;;;;;11.95;6.22;;;7.90;99.90;;;;;;5015793;28;20084;-69
2022/06/01 02:17:07;;;;;;;8.63;6.03;;;7.90;99.90;;;;;;5016117;28;20053;-69
2022/06/01 02:19:42;;;;;;;6.65;5.40;;;7.90;99.90;;;;;;5015964;28;20018;-69
2022/06/01 02:22:08;;;;;;;7.32;5.95;;;7.90;99.90;;;;;;5016079;28;20033;-69
2022/06/01 02:24:34;;;;;;;6.50;5.05;;;7.90;99.90;;;;;;5015597;28;20409;-69
2022/06/01 02:27:00;;;;;;;6.68;5.07;;;7.90;99.90;;;;;;5015917;28;20042;-69
2022/06/01 02:29:32;;;;;;;9.15;6.65;;;7.80;99.90;;;;;;5015573;28;20042;-69
2022/06/01 02:31:58;;;;;;;7.93;5.72;;;7.80;99.90;;;;;;5015833;28;20030;-69
2022/06/01 02:34:25;;;;;;;9.68;6.70;;;7.80;99.90;;;;;;5015590;28;20111;-69
2022/06/01 02:36:51;;;;;;;7.38;5.97;;;7.80;99.90;;;;;;5015436;28;20076;-69
2022/06/01 02:39:18;;;;;;;6.70;5.50;;;7.80;99.90;;;;;;5016068;28;20022;-69
2022/06/01 02:44:28;;;;;;;7.45;5.45;;;7.80;99.90;;;;;;5015650;28;20048;-69
2022/06/01 02:46:53;;;;;;;7.55;6.65;;;7.80;99.90;;;;;;5015139;28;20479;-69
2022/06/01 02:49:19;;;;;;;11.65;6.10;;;7.80;99.90;;;;;;5015204;28;20033;-69
2022/06/01 02:51:46;;;;;;;8.73;5.95;;;7.80;99.90;;;;;;5015383;28;20068;-69
2022/06/01 02:54:12;;;;;;;8.15;6.18;;;7.80;99.90;;;;;;5015500;28;20018;-69
2022/06/01 02:56:38;;;;;;;7.30;6.35;;;7.80;99.90;;;;;;5014130;28;20066;-69
2022/06/01 02:59:05;;;;;;;7.25;6.28;;;7.80;99.90;;;;;;5015166;28;20030;-69
2022/06/01 03:01:31;;;;;;;8.18;5.75;;;7.80;99.90;;;;;;5015132;28;20478;-69
2022/06/01 03:03:57;;;;;;;9.30;6.00;;;7.80;99.90;;;;;;5014968;28;20037;-69
2022/06/01 03:06:23;;;;;;;10.60;6.75;;;7.80;99.90;;;;;;5014963;28;20032;-69
2022/06/01 03:08:49;;;;;;;8.25;6.60;;;7.80;99.90;;;;;;5015042;28;20030;-69
2022/06/01 03:11:14;;;;;;;11.07;6.97;;;7.80;99.90;;;;;;5014938;28;20482;-69
2022/06/01 03:13:40;;;;;;;9.25;6.78;;;7.80;99.90;;;;;;5014841;28;20028;-69
2022/06/01 03:16:06;;;;;;;11.73;7.70;;;7.90;99.90;;;;;;5015353;28;20026;-69
2022/06/01 03:18:32;;;;;;;9.48;6.90;;;7.80;99.90;;;;;;5016190;28;20038;-69
2022/06/01 03:21:00;;;;;;;10.00;7.13;;;7.80;99.90;;;;;;5016176;28;20030;-69
2022/06/01 03:23:26;;;;;;;8.65;6.13;;;7.80;99.90;;;;;;4996873;28;20037;-69
2022/06/01 03:25:52;;;;;;;9.93;6.55;;;7.80;99.90;;;;;;5014693;28;20034;-69
2022/06/01 03:28:18;;;;;;;11.20;7.03;;;7.80;99.90;;;;;;5014731;28;20029;-69
2022/06/01 03:30:43;;;;;;;9.35;7.22;;;7.90;99.90;;;;;;5014603;28;20018;-69
2022/06/01 03:33:11;;;;;;;10.30;6.50;;;7.80;99.90;;;;;;5014546;28;20022;-69
2022/06/01 03:35:37;;;;;;;11.57;7.78;;;7.90;99.90;;;;;;5014770;28;20064;-69
2022/06/01 03:38:03;;;;;;;12.23;6.93;;;7.90;99.90;;;;;;5014521;28;20026;-69
2022/06/01 03:40:31;;;;;;;11.77;7.15;;;7.90;99.90;;;;;;5014380;28;20090;-69
2022/06/01 03:42:57;;;;;;;12.48;6.72;;;8.00;99.90;;;;;;5014284;28;20033;-69
2022/06/01 03:48:08;;;;;;;9.65;6.80;;;8.10;99.90;;;;;;5014245;28;20029;-69
2022/06/01 03:50:35;;;;;;;8.20;6.72;;;8.20;99.90;;;;;;5015007;28;20076;-69
2022/06/01 03:53:02;;;;;;;9.93;7.13;;;8.20;99.90;;;;;;5014303;28;20018;-69
2022/06/01 03:55:28;;;;;;;11.60;8.20;;;8.30;99.90;;;;;;4996591;28;20033;-69
2022/06/01 03:57:54;;;;;;;12.60;8.60;;;8.30;99.90;;;;;;5014114;28;20463;-69
2022/06/01 04:00:22;;;;;;;11.02;7.53;;;8.30;99.90;;;;;;5014370;28;20092;-69
2022/06/01 04:02:48;;;;;;;10.45;6.97;;;8.30;99.90;;;;;;5014036;28;20030;-69
2022/06/01 04:05:14;;;;;;;16.92;8.85;;;8.40;99.90;;;;;;5014028;28;20401;-69
2022/06/01 04:07:40;;;;;;;8.93;7.75;;;8.40;99.90;;;;;;5013858;28;20029;-69
2022/06/01 04:10:06;;;;;;;9.90;7.80;;;8.40;99.90;;;;;;5014383;28;20029;-69
2022/06/01 04:12:31;;;;;;;10.75;8.57;;;8.40;99.90;;;;;;5014089;28;20026;-69
2022/06/01 04:14:57;;;;;;;10.75;7.72;;;8.40;99.90;;;;;;5013888;28;20532;-69
2022/06/01 04:17:22;;;;;;;9.57;7.55;;;8.40;99.90;;;;;;5014210;28;20048;-69
2022/06/01 04:19:48;;;;;;;10.27;8.07;;;8.50;99.90;;;;;;5013760;28;20033;-69
2022/06/01 04:22:15;;;;;;;9.73;7.22;;;8.50;99.90;;;;;;5013790;28;20026;-69
2022/06/01 04:24:40;;;;;;;10.55;7.72;;;8.60;99.90;;;;;;5013802;28;20108;-69
2022/06/01 04:27:07;;;;;;;10.82;7.68;;;8.70;99.90;;;;;;5013769;28;20145;-69
2022/06/01 04:29:33;;;;;;;7.88;6.80;;;8.80;99.90;;;;;;5013857;28;20018;-69
2022/06/01 04:32:05;;;;;;;12.43;7.28;;;8.90;99.90;;;;;;5013791;28;20430;-69
2022/06/01 04:34:31;;;;;;;11.52;7.97;;;9.00;99.90;;;;;;5013501;28;20044;-69
2022/06/01 04:36:57;;;;;;;10.05;7.40;;;9.10;99.90;;;;;;5013772;28;20049;-69
2022/06/01 04:39:23;;;;;;;10.75;7.03;;;9.20;99.90;;;;;;5013662;28;20490;-69
2022/06/01 04:41:49;;;;;;;11.35;7.72;;;9.30;99.90;;;;;;5013651;28;20022;-69
2022/06/01 04:44:15;;;;;;;9.48;7.70;;;9.30;99.90;;;;;;5013931;28;20390;-69
2022/06/01 04:46:41;;;;;;;11.35;8.60;;;9.40;99.90;;;;;;5013656;28;20036;-69
2022/06/01 04:49:07;;;;;;;10.85;7.60;;;9.50;99.90;;;;;;5013602;28;20097;-69
2022/06/01 04:51:33;;;;;;;11.88;8.23;;;9.50;99.90;;;;;;5013580;28;20430;-69
2022/06/01 04:53:59;;;;;;;11.07;8.05;;;9.60;99.90;;;;;;5013475;28;20088;-69
2022/06/01 04:56:25;;;;;;;14.00;8.57;;;9.60;99.90;;;;;;5013331;28;20475;-69
2022/06/01 04:58:50;;;;;;;13.95;8.57;;;9.70;99.90;;;;;;5013413;28;20044;-69
2022/06/01 05:01:16;;;;;;;13.48;9.30;;;9.70;99.90;;;;;;5014068;28;20091;-69
2022/06/01 05:03:41;;;;;;;15.32;7.80;;;9.80;99.90;;;;;;5013485;28;20497;-69
2022/06/01 05:06:07;;;;;;;11.63;8.15;;;9.90;99.90;;;;;;5013412;28;20398;-69
2022/06/01 05:08:32;;;;;;;11.38;7.95;;;10.00;99.90;;;;;;5013305;28;20471;-69
2022/06/01 05:10:58;;;;;;;15.63;7.90;;;10.10;99.90;;;;;;5013669;28;20463;-69
2022/06/01 05:13:23;;;;;;;13.82;7.70;;;10.10;99.90;;;;;;5013508;28;20022;-69
2022/06/01 05:15:56;;;;;;;11.07;7.90;;;10.20;99.90;;;;;;5013599;28;20390;-69
2022/06/01 05:18:22;;;;;;;12.30;8.25;;;10.20;99.90;;;;;;5013552;28;20041;-69
2022/06/01 05:20:48;;;;;;;14.07;9.30;;;10.30;99.90;;;;;;5016879;28;20113;-69
2022/06/01 05:23:17;;;;;;;11.50;8.35;;;10.30;99.90;;;;;;5017201;28;20030;-69
2022/06/01 05:25:44;;;;;;;17.40;10.05;;;10.40;99.90;;;;;;5016718;28;20037;-69
2022/06/01 05:28:10;;;;;;;13.63;10.18;;;10.40;99.90;;;;;;5016723;28;20064;-69
2022/06/01 05:30:36;;;;;;;13.07;8.45;;;10.50;99.90;;;;;;5016761;28;20057;-69
2022/06/01 05:33:02;;;;;;;10.98;7.80;;;10.60;99.90;;;;;;5016618;28;20060;-69
2022/06/01 05:35:28;;;;;;;12.73;9.70;;;10.80;99.90;;;;;;5017020;28;20068;-69
2022/06/01 05:37:54;;;;;;;11.32;8.25;;;10.80;99.90;;;;;;5016555;28;20053;-69
2022/06/01 05:40:19;;;;;;;10.52;9.13;;;11.00;99.90;;;;;;5016641;28;20080;-69
2022/06/01 05:42:45;;;;;;;19.58;9.00;;;11.10;99.90;;;;;;5018135;28;20044;-69
2022/06/01 05:45:11;;;;;;;13.68;8.88;;;11.40;99.90;;;;;;5018338;28;20068;-69
2022/06/01 05:47:37;;;;;;;12.75;9.45;;;11.60;99.90;;;;;;5017270;28;20029;-69
2022/06/01 05:50:04;;;;;;;15.18;10.60;;;11.90;99.90;;;;;;5016360;28;20109;-69
2022/06/01 05:52:30;;;;;;;22.35;10.40;;;12.20;99.90;;;;;;5016222;28;20061;-69
2022/06/01 05:54:55;;;;;;;15.73;9.68;;;12.50;99.90;;;;;;5016854;28;20062;-69
2022/06/01 05:57:21;;;;;;;12.60;8.88;;;12.70;99.90;;;;;;5016163;28;20060;-69
2022/06/01 05:59:46;;;;;;;15.38;9.30;;;12.90;99.90;;;;;;5016458;28;20033;-69
2022/06/01 06:02:12;;;;;;;14.73;9.02;;;13.00;99.90;;;;;;5016221;28;20022;-69
2022/06/01 06:04:37;;;;;;;13.80;8.75;;;13.20;99.90;;;;;;5016207;28;20026;-69
2022/06/01 06:07:03;;;;;;;12.95;8.90;;;13.30;99.90;;;;;;5016067;28;20148;-69
2022/06/01 06:09:29;;;;;;;12.07;9.13;;;13.40;99.90;;;;;;5016311;28;20018;-69
2022/06/01 06:11:55;;;;;;;12.20;9.00;;;13.50;99.90;;;;;;5016243;28;20081;-69
2022/06/01 06:14:21;;;;;;;10.98;8.07;;;13.70;99.90;;;;;;5015852;28;20022;-69
2022/06/01 06:16:47;;;;;;;14.45;8.27;;;13.70;99.90;;;;;;5015636;28;20041;-69
2022/06/01 06:19:15;;;;;;;10.75;7.13;;;13.80;99.90;;;;;;5016419;28;20097;-69
2022/06/01 06:21:41;;;;;;;12.68;7.22;;;14.00;99.90;;;;;;5015885;28;20112;-69
2022/06/01 06:24:09;;;;;;;9.65;7.50;;;14.10;99.90;;;;;;5015772;28;20052;-69
2022/06/01 06:26:36;;;;;;;13.00;8.68;;;14.20;99.90;;;;;;5015466;28;20034;-69
2022/06/01 06:29:04;;;;;;;15.40;7.88;;;14.40;99.90;;;;;;5015797;28;20056;-69
2022/06/01 06:31:30;;;;;;;12.07;8.13;;;14.50;99.90;;;;;;5015386;28;20036;-69
2022/06/01 06:33:56;;;;;;;13.20;7.80;;;14.60;99.90;;;;;;5015469;28;20445;-69
2022/06/01 06:36:21;;;;;;;10.65;7.00;;;14.80;99.90;;;;;;5015490;28;20030;-69
2022/06/01 06:38:47;;;;;;;12.20;7.97;;;14.80;99.90;;;;;;5015550;28;20390;-69
2022/06/01 06:41:13;;;;;;;9.45;6.60;;;14.80;99.90;;;;;;5015383;28;20026;-69
2022/06/01 06:43:40;;;;;;;10.80;7.25;;;14.70;99.90;;;;;;5015215;28;20038;-69
2022/06/01 06:46:09;;;;;;;11.75;7.53;;;14.60;99.90;;;;;;5015129;28;20030;-69
2022/06/01 06:48:36;;;;;;;11.52;7.53;;;14.60;99.90;;;;;;5015288;28;20105;-69
2022/06/01 06:51:01;;;;;;;10.55;7.07;;;14.60;99.90;;;;;;5015084;28;20482;-69
2022/06/01 06:53:28;;;;;;;11.73;7.72;;;14.40;99.90;;;;;;5015114;28;20037;-69
2022/06/01 06:55:54;;;;;;;11.45;7.07;;;14.40;99.90;;;;;;5015383;28;20022;-69
2022/06/01 06:58:20;;;;;;;10.85;7.15;;;14.60;99.90;;;;;;5014999;28;20501;-69
2022/06/01 07:00:46;;;;;;;12.25;7.03;;;14.50;99.90;;;;;;5015139;28;20034;-69
2022/06/01 07:03:12;;;;;;;12.70;7.65;;;14.60;99.90;;;;;;5015186;28;20036;-69
2022/06/01 07:08:24;;;;;;;12.45;5.10;;;14.80;99.90;;;;;;5014768;28;20029;-69
2022/06/01 07:10:50;;;;;;;9.25;5.68;;;15.00;99.90;;;;;;5015009;28;20053;-69
2022/06/01 07:13:16;;;;;;;12.45;6.35;;;15.20;99.90;;;;;;5015200;28;20049;-69
2022/06/01 07:15:42;;;;;;;10.63;6.10;;;15.40;99.90;;;;;;5014951;28;20030;-69
2022/06/01 07:18:08;;;;;;;9.48;5.45;;;15.60;99.90;;;;;;5014581;28;20092;-69
2022/06/01 07:20:33;;;;;;;8.82;4.78;;;15.90;99.90;;;;;;5015077;28;20036;-69
2022/06/01 07:22:59;;;;;;;6.82;4.60;;;16.20;99.90;;;;;;5014919;28;20026;-69
2022/06/01 07:25:25;;;;;;;10.90;5.32;;;16.30;99.90;;;;;;5014526;28;20033;-69
2022/06/01 07:27:52;;;;;;;8.15;5.00;;;16.30;99.90;;;;;;5014595;28;20052;-69
2022/06/01 07:30:18;;;;;;;7.25;5.25;;;16.40;99.90;;;;;;5014527;28;20101;-69
2022/06/01 07:32:45;;;;;;;8.15;5.20;;;16.40;99.90;;;;;;5014998;28;20056;-69
2022/06/01 07:35:11;;;;;;;8.07;5.15;;;16.30;99.90;;;;;;5014431;28;20101;-69
2022/06/01 07:43:05;;;;;;;6.53;3.35;;;16.30;99.90;;;;;;5014110;28;20502;-69
2022/06/01 07:45:33;;;;;;;5.65;3.53;;;16.50;99.90;;;;;;5014157;28;20100;-69
2022/06/01 07:47:58;;;;;;;7.45;4.60;;;16.50;99.90;;;;;;5014203;28;20357;-69
2022/06/01 07:50:24;;;;;;;8.05;4.05;;;16.50;99.90;;;;;;5014232;28;20028;-69
2022/06/01 07:52:49;;;;;;;5.53;4.10;;;16.60;99.90;;;;;;5014190;28;20034;-69
2022/06/01 07:55:15;;;;;;;7.00;4.68;;;16.40;99.90;;;;;;5014369;28;20026;-69
2022/06/01 07:57:40;;;;;;;8.75;4.95;;;16.40;99.90;;;;;;5014194;28;20044;-69
2022/06/01 08:00:07;;;;;;;9.70;5.93;;;16.20;99.90;;;;;;5014198;28;20109;-69
2022/06/01 08:02:32;;;;;;;7.68;5.32;;;16.30;99.90;;;;;;5013935;28;20034;-69
2022/06/01 08:04:58;;;;;;;10.10;5.10;;;16.20;99.90;;;;;;5013758;28;20057;-69
2022/06/01 08:07:23;;;;;;;12.60;5.30;;;16.30;99.90;;;;;;5014526;28;20474;-69
2022/06/01 08:09:49;;;;;;;7.97;5.40;;;16.30;99.90;;;;;;5015273;28;20022;-69
2022/06/01 08:14:59;;;;;;;10.38;5.03;;;16.20;99.90;;;;;;5013844;28;20438;-69
2022/06/01 08:17:24;;;;;;;5.32;3.88;;;16.30;99.90;;;;;;5013736;28;20053;-69
2022/06/01 08:19:50;;;;;;;5.35;3.88;;;16.30;99.90;;;;;;5013686;28;20030;-69
2022/06/01 08:22:15;;;;;;;3.10;2.80;;;16.30;99.90;;;;;;5013760;28;20052;-69
2022/06/01 08:24:41;;;;;;;5.28;3.90;;;16.50;99.90;;;;;;5014045;28;20467;-68
2022/06/01 08:27:08;;;;;;;4.72;3.70;;;16.90;99.90;;;;;;5013697;28;20080;-68
2022/06/01 08:29:35;;;;;;;7.97;3.97;;;16.80;99.90;;;;;;5013839;28;20026;-68
2022/06/01 08:32:00;;;;;;;6.55;3.90;;;17.00;99.90;;;;;;5013893;28;20034;-68
2022/06/01 08:34:26;;;;;;;6.80;3.20;;;16.90;99.90;;;;;;5013924;28;20029;-68
2022/06/01 08:36:51;;;;;;;8.25;3.28;;;16.80;99.90;;;;;;5013673;28;20033;-68
2022/06/01 08:39:17;;;;;;;5.45;4.20;;;16.70;99.90;;;;;;5013858;28;20119;-68
2022/06/01 08:41:43;;;;;;;12.07;4.25;;;16.70;99.90;;;;;;5014137;28;20037;-68
2022/06/01 08:44:23;;;;;;;7.35;4.15;;;16.60;99.90;;;;;;5013456;28;20083;-68
2022/06/01 08:46:51;;;;;;;4.72;3.40;;;16.80;99.90;;;;;;5013657;28;20057;-68
2022/06/01 08:49:24;;;;;;;8.73;3.33;;;16.90;99.90;;;;;;5013547;28;20481;-68
2022/06/01 08:51:52;;;;;;;5.00;3.70;;;17.20;99.90;;;;;;5013792;28;20026;-68
2022/06/01 08:54:18;;;;;;;4.45;3.58;;;17.10;99.90;;;;;;5015806;28;20398;-69
2022/06/01 08:56:47;;;;;;;6.05;4.00;;;17.20;99.90;;;;;;5017294;28;20026;-68
2022/06/01 08:59:33;;;;;;;6.18;3.40;;;17.40;99.90;;;;;;5017294;28;20026;-69
2022/06/01 09:02:22;;;;;;;6.40;3.45;;;17.70;99.90;;;;;;5017657;28;20413;-69
2022/06/01 09:04:54;;;;;;;5.68;3.35;;;17.90;99.90;;;;;;5017347;28;20029;-69
2022/06/01 09:07:41;;;;;;;5.88;3.45;;;18.20;99.90;;;;;;5017208;28;20072;-69
2022/06/01 09:10:25;;;;;;;3.63;2.90;;;18.30;99.90;;;;;;5017090;28;20149;-69
2022/06/01 09:13:03;;;;;;;6.47;3.42;;;18.50;99.90;;;;;;5016996;28;20022;-69
2022/06/01 09:15:38;;;;;;;5.32;2.97;;;18.50;99.90;;;;;;5017179;28;20029;-69
2022/06/01 09:18:04;;;;;;;27.73;6.80;;;18.50;99.90;;;;;;5017020;28;20064;-69
2022/06/01 09:23:15;;;;;;;6.00;3.90;;;18.50;99.90;;;;;;5016911;28;20037;-69
2022/06/01 09:25:50;;;;;;;6.15;2.70;;;18.20;99.90;;;;;;5016886;28;20109;-69
2022/06/01 09:28:23;;;;;;;6.43;3.47;;;17.70;99.90;;;;;;5016990;28;20030;-69
2022/06/01 09:30:55;;;;;;;5.35;2.50;;;17.70;99.90;;;;;;5016917;28;20055;-68
2022/06/01 09:33:34;;;;;;;4.60;2.20;;;18.10;99.90;;;;;;5017276;28;20026;-68
2022/06/01 09:36:06;;;;;;;5.22;2.03;;;18.40;99.90;;;;;;5016853;28;20029;-69
2022/06/01 09:38:37;;;;;;;6.03;1.95;;;18.20;99.90;;;;;;5016761;28;20029;-69
2022/06/01 09:41:12;;;;;;;7.93;2.47;;;17.90;99.90;;;;;;5016762;28;20030;-69
2022/06/01 09:43:40;;;;;;;3.17;2.30;;;17.90;99.90;;;;;;5016360;28;20425;-69
2022/06/01 09:46:06;;;;;;;5.05;2.58;;;18.10;99.90;;;;;;5016097;28;20171;-69
2022/06/01 09:48:45;;;;;;;9.90;3.08;;;18.90;99.90;;;;;;5016796;28;20049;-69
2022/06/01 09:51:18;;;;;;;6.93;2.50;;;19.60;99.90;;;;;;5016393;28;20056;-69
2022/06/01 09:53:52;;;;;;;6.18;2.33;;;19.80;99.90;;;;;;5016314;28;20032;-69
2022/06/01 09:56:34;;;;;;;5.53;2.63;;;19.40;99.90;;;;;;5016726;28;20037;-69
2022/06/01 10:07:25;;;;;;;3.85;1.92;;;19.00;99.90;;;;;;5015836;28;20409;-69
2022/06/01 10:09:54;;;;;;;4.57;2.10;;;18.90;99.90;;;;;;5016385;28;20018;-69
2022/06/01 10:12:42;;;;;;;10.80;3.28;;;18.70;99.90;;;;;;5016111;28;20057;-69
2022/06/01 10:15:23;;;;;;;5.85;3.13;;;18.60;99.90;;;;;;5016135;28;20434;-69
2022/06/01 10:17:56;;;;;;;7.40;2.95;;;18.40;99.90;;;;;;5015606;28;20038;-69
2022/06/01 10:20:37;;;;;;;8.10;3.13;;;18.20;99.90;;;;;;5015840;28;20483;-68
2022/06/01 10:23:24;;;;;;;6.18;3.00;;;18.10;99.90;;;;;;5016015;28;20360;-68
2022/06/01 10:25:59;;;;;;;6.22;2.63;;;17.80;99.90;;;;;;5016005;28;20402;-68
2022/06/01 10:28:36;;;;;;;6.20;2.90;;;17.80;99.90;;;;;;5015629;28;20029;-68
2022/06/01 10:31:04;;;;;;;7.10;3.10;;;18.00;99.90;;;;;;5015934;28;20022;-68
2022/06/01 10:34:06;;;;;;;5.30;2.80;;;18.20;99.90;;;;;;5016880;28;20018;-68
2022/06/01 10:36:43;;;;;;;6.60;3.17;;;18.40;99.90;;;;;;4997164;28;20033;-68
2022/06/01 10:39:25;;;;;;;5.78;3.60;;;19.30;99.90;;;;;;4995963;28;20566;-68
2022/06/01 10:42:19;;;;;;;5.85;3.20;;;19.50;99.90;;;;;;4995986;28;20105;-68
2022/06/01 10:44:58;;;;;;;5.80;3.08;;;19.20;99.90;;;;;;4996273;28;20038;-68
2022/06/01 10:47:42;;;;;;;4.47;3.25;;;18.50;99.90;;;;;;5011763;28;20022;-68
2022/06/01 10:50:16;;;;;;;6.57;3.42;;;18.20;99.90;;;;;;5015314;28;20510;-68
2022/06/01 10:52:54;;;;;;;;;;;18.10;99.90;;;;;;5015773;28;20109;-68
2022/06/01 10:55:33;;;;;;;6.03;3.42;;;17.70;99.90;;;;;;5015731;28;19906;-68
2022/06/01 10:58:00;;;;;;;6.00;3.05;;;17.80;99.90;;;;;;4997608;28;20029;-68
2022/06/01 11:00:48;;;;;;;8.63;3.53;;;18.20;99.90;;;;;;5015372;28;20026;-68
2022/06/01 11:03:13;;;;;;;7.75;3.35;;;18.10;99.90;;;;;;5015065;28;20030;-68
2022/06/01 11:05:53;;;;;;;6.15;3.42;;;17.80;99.90;;;;;;5015185;28;20030;-68
2022/06/01 11:08:34;;;;;;;8.68;3.38;;;17.60;99.90;;;;;;5015228;28;20524;-68
2022/06/01 11:11:09;;;;;;;8.07;3.53;;;17.40;99.90;;;;;;5014877;28;20490;-68
2022/06/01 11:13:57;;;;;;;5.93;2.78;;;17.20;99.90;;;;;;5014900;28;20105;-69
2022/06/01 11:16:41;;;;;;;5.32;2.55;;;17.20;99.90;;;;;;5013999;28;20030;-69
2022/06/01 11:19:25;;;;;;;6.25;3.55;;;17.40;99.90;;;;;;5014603;28;20038;-69
2022/06/01 11:22:09;;;;;;;9.20;3.00;;;17.70;99.90;;;;;;5014918;28;20029;-69
2022/06/01 11:24:50;;;;;;;;;;;17.90;99.90;;;;;;5015192;28;20088;-69
2022/06/01 11:27:39;;;;;;;13.90;3.20;;;18.00;99.90;;;;;;5014623;28;20373;-69
2022/06/01 11:30:23;;;;;;;15.68;4.35;;;18.00;99.90;;;;;;5014754;28;20036;-69
2022/06/01 11:33:06;;;;;;;10.82;4.10;;;17.90;99.90;;;;;;5014536;28;20028;-69
2022/06/01 11:35:47;;;;;;;11.43;4.40;;;17.80;99.90;;;;;;5014794;28;20176;-69
2022/06/01 11:38:28;;;;;;;8.43;3.65;;;17.60;99.90;;;;;;5014486;28;20422;-69
2022/06/01 11:41:19;;;;;;;8.90;3.72;;;17.40;99.90;;;;;;5014712;28;20029;-68
2022/06/01 11:43:52;;;;;;;11.23;3.60;;;17.10;99.90;;;;;;5014681;28;20051;-68
2022/06/01 11:46:33;;;;;;;8.02;4.15;;;16.90;99.90;;;;;;5014397;28;20438;-68
2022/06/01 11:49:09;;;;;;;10.30;3.33;;;16.90;99.90;;;;;;5014166;28;20037;-68
2022/06/01 11:51:37;;;;;;;5.65;3.65;;;17.00;99.90;;;;;;5014487;28;20037;-68
2022/06/01 11:54:34;;;;;;;6.70;3.50;;;17.20;99.90;;;;;;5014440;28;20029;-69
2022/06/01 11:57:01;;;;;;;6.80;3.28;;;17.40;99.90;;;;;;5014287;28;20113;-68
2022/06/01 11:59:45;;;;;;;6.10;3.17;;;18.00;99.90;;;;;;5014187;28;20034;-68
2022/06/01 12:02:18;;;;;;;7.00;3.47;;;18.70;99.90;;;;;;5014505;28;20080;-67
2022/06/01 12:04:55;;;;;;;5.55;2.97;;;19.20;99.90;;;;;;5013990;28;20069;-68
2022/06/01 12:07:49;;;;;;;6.88;2.97;;;19.30;99.90;;;;;;5014058;28;20033;-67
2022/06/01 12:10:27;;;;;;;7.57;3.13;;;19.70;99.90;;;;;;5011060;28;20092;-68
2022/06/01 12:12:55;;;;;;;5.20;3.00;;;20.20;99.90;;;;;;5013703;28;20483;-68
2022/06/01 12:15:26;;;;;;;10.35;2.25;;;20.40;99.90;;;;;;5013900;28;20036;-69
2022/06/01 12:18:18;;;;;;;5.03;2.42;;;20.20;99.90;;;;;;5014065;28;20113;-68
2022/06/01 12:20:51;;;;;;;6.60;2.70;;;19.70;99.90;;;;;;5014191;28;20030;-68
2022/06/01 12:28:56;;;;;;;9.45;3.45;;;17.90;99.90;;;;;;5018669;28;20117;-68
2022/06/01 12:31:32;;;;;;;3.63;2.92;;;17.40;99.90;;;;;;5020099;28;20025;-68
2022/06/01 12:34:16;;;;;;;4.45;2.72;;;17.20;99.90;;;;;;5020442;28;20026;-68
2022/06/01 12:37:00;;;;;;;5.15;3.17;;;16.90;99.90;;;;;;5020348;28;20026;-69
2022/06/01 12:39:37;;;;;;;9.13;3.10;;;16.70;99.90;;;;;;5020593;28;20076;-68
2022/06/01 12:42:14;;;;;;;4.68;2.90;;;16.70;99.90;;;;;;5020626;28;20529;-68
2022/06/01 12:44:43;;;;;;;6.47;2.40;;;16.30;99.90;;;;;;5020291;28;20041;-68
2022/06/01 12:47:25;;;;;;;4.25;2.95;;;16.10;99.90;;;;;;5020072;28;20431;-68
2022/06/01 12:49:51;;;;;;;5.93;3.72;;;15.90;99.90;;;;;;5020188;28;20101;-68
2022/06/01 12:52:21;;;;;;;7.57;3.63;;;15.70;99.90;;;;;;5020073;28;20057;-68
2022/06/01 12:54:55;;;;;;;7.82;4.40;;;15.60;99.90;;;;;;5020607;28;20026;-68
2022/06/01 12:57:34;;;;;;;7.65;3.78;;;15.40;99.90;;;;;;5021268;28;20030;-68
2022/06/01 13:00:08;;;;;;;6.30;3.72;;;15.30;99.90;;;;;;5023362;28;20026;-69
2022/06/01 13:02:38;;;;;;;6.60;3.17;;;15.30;99.90;;;;;;5020484;28;20026;-68
2022/06/01 13:05:06;;;;;;;5.00;3.35;;;15.30;99.90;;;;;;5012596;28;20046;-68
2022/06/01 13:07:40;;;;;;;6.88;3.20;;;15.40;99.90;;;;;;5010487;28;20046;-68
2022/06/01 13:10:13;;;;;;;5.32;3.22;;;15.40;99.90;;;;;;5019945;28;20022;-68
2022/06/01 13:12:39;;;;;;;5.45;3.00;;;15.50;99.90;;;;;;5006738;28;20131;-68
2022/06/01 13:15:17;;;;;;;4.65;2.88;;;15.70;99.90;;;;;;5019573;28;20018;-68
2022/06/01 13:17:56;;;;;;;7.57;3.10;;;15.90;99.90;;;;;;5003639;28;20048;-68
2022/06/01 13:20:33;;;;;;;7.10;2.88;;;15.80;99.90;;;;;;5019974;28;20014;-68
2022/06/01 13:23:00;;;;;;;5.75;3.03;;;15.80;99.90;;;;;;5020380;28;20058;-73
2022/06/01 13:25:34;;;;;;;4.55;2.63;;;15.90;99.90;;;;;;5019929;28;20030;-73
2022/06/01 13:28:00;;;;;;;3.15;2.63;;;15.90;99.90;;;;;;5020284;28;20108;-73
2022/06/01 13:30:29;;;;;;;7.45;3.47;;;16.00;99.90;;;;;;5020016;28;20025;-73
2022/06/01 13:32:57;;;;;;;4.05;2.65;;;16.10;99.90;;;;;;5020112;28;20022;-73
2022/06/01 13:35:35;;;;;;;5.20;3.05;;;16.30;99.90;;;;;;5019528;28;20482;-73
2022/06/01 13:38:03;;;;;;;4.53;2.42;;;16.30;99.90;;;;;;5020136;28;20033;-73
2022/06/01 13:40:45;;;;;;;5.90;3.10;;;16.30;99.90;;;;;;5016590;28;20139;-73